createdAt,value
2023-06-30T15:17:53.704Z,18.37
2023-06-30T15:20:34.463Z,18.50
2023-06-30T15:23:09.983Z,18.50
2023-06-30T15:28:31.197Z,18.60
2023-06-30T15:31:11.708Z,18.66
2023-06-30T15:33:49.662Z,18.74
2023-06-30T15:36:22.456Z,19.01
2023-06-30T15:39:13.879Z,19.09
2023-06-30T15:41:54.039Z,18.87
2023-06-30T15:44:31.926Z,18.89
2023-06-30T15:47:02.695Z,18.86
2023-06-30T15:49:32.703Z,18.80
2023-06-30T15:52:18.400Z,19.00
2023-06-30T15:55:08.269Z,19.03
2023-06-30T15:57:38.637Z,18.89
2023-06-30T16:00:21.194Z,18.83
2023-06-30T16:03:07.508Z,18.96
2023-06-30T16:05:42.628Z,18.96
2023-06-30T16:08:18.072Z,18.91
2023-06-30T16:10:53.508Z,18.59
2023-06-30T16:13:25.981Z,18.56
2023-06-30T16:15:59.054Z,18.66
2023-06-30T16:18:30.814Z,18.63
2023-06-30T16:21:03.859Z,18.64
2023-06-30T16:23:31.088Z,18.77
2023-06-30T16:26:08.864Z,18.63
2023-06-30T16:28:47.425Z,18.71
2023-06-30T16:31:28.706Z,18.63
2023-06-30T16:34:08.482Z,18.71
2023-06-30T16:36:43.120Z,18.75
2023-06-30T16:39:12.987Z,18.74
2023-06-30T16:42:00.095Z,18.54
2023-06-30T16:44:31.143Z,18.64
2023-06-30T16:47:09.116Z,18.58
2023-06-30T16:49:41.217Z,18.64
2023-06-30T16:52:11.217Z,18.69
2023-06-30T16:54:45.876Z,18.65
2023-06-30T16:57:21.288Z,18.77
2023-06-30T16:59:56.179Z,18.84
2023-06-30T17:02:46.305Z,18.97
2023-06-30T17:05:23.661Z,19.03
2023-06-30T17:08:03.233Z,19.08
2023-06-30T17:10:46.731Z,18.86
2023-06-30T17:13:14.146Z,18.89
2023-06-30T17:15:44.408Z,18.98
2023-06-30T17:18:19.485Z,19.02
2023-06-30T17:20:57.276Z,19.14
2023-06-30T17:23:31.494Z,19.13
2023-06-30T17:26:06.163Z,19.18
2023-06-30T17:28:39.825Z,19.09
2023-06-30T17:31:09.851Z,19.12
2023-06-30T17:33:39.117Z,19.12
2023-06-30T17:36:16.190Z,19.04
2023-06-30T17:38:48.000Z,18.99
2023-06-30T17:41:25.594Z,18.95
2023-06-30T17:44:00.927Z,18.89
2023-06-30T17:46:35.918Z,18.88
2023-06-30T17:49:31.566Z,18.86
2023-06-30T17:52:04.578Z,18.68
2023-06-30T17:54:40.494Z,18.67
2023-06-30T17:57:09.762Z,18.80
2023-06-30T17:59:44.102Z,18.72
2023-06-30T18:02:22.907Z,18.57
2023-06-30T18:04:55.378Z,18.57
2023-06-30T18:07:33.026Z,18.45
2023-06-30T18:10:05.418Z,18.46
2023-06-30T18:12:35.133Z,18.38
2023-06-30T18:15:12.421Z,18.30
2023-06-30T18:17:44.922Z,18.24
2023-06-30T18:20:28.351Z,18.23
2023-06-30T18:23:03.276Z,18.10
2023-06-30T18:25:43.578Z,18.01
2023-06-30T18:28:14.423Z,17.96
2023-06-30T18:30:46.016Z,17.97
2023-06-30T18:33:12.860Z,17.76
2023-06-30T18:35:55.050Z,17.65
2023-06-30T18:38:33.137Z,17.77
2023-06-30T18:41:05.632Z,17.73
2023-06-30T18:43:37.573Z,17.79
2023-06-30T18:46:21.044Z,17.79
2023-06-30T18:48:56.189Z,17.73
2023-06-30T18:51:35.885Z,17.71
2023-06-30T18:54:08.698Z,17.75
2023-06-30T18:56:45.679Z,17.77
2023-06-30T18:59:18.434Z,17.83
2023-06-30T19:01:53.280Z,17.86
2023-06-30T19:04:25.350Z,17.87
2023-06-30T19:07:05.208Z,17.90
2023-06-30T19:09:37.297Z,17.91
2023-06-30T19:12:11.385Z,17.81
2023-06-30T19:14:57.380Z,17.84
2023-06-30T19:17:35.331Z,17.89
2023-06-30T19:20:11.614Z,17.89
2023-06-30T19:22:47.443Z,18.01
2023-06-30T19:25:16.976Z,18.06
2023-06-30T19:27:52.762Z,18.04
2023-06-30T19:30:30.935Z,18.04
2023-06-30T19:33:09.363Z,18.06
2023-06-30T19:35:38.973Z,18.04
2023-06-30T19:38:11.675Z,18.06
2023-06-30T19:40:40.805Z,18.06
2023-06-30T19:43:15.702Z,17.95
2023-06-30T19:45:50.740Z,18.01
2023-06-30T19:48:26.403Z,17.97
2023-06-30T19:51:01.432Z,17.91
2023-06-30T19:53:28.667Z,17.88
2023-06-30T19:56:06.587Z,17.79
2023-06-30T19:58:38.671Z,17.76
2023-06-30T20:01:16.371Z,17.75
2023-06-30T20:03:51.409Z,17.72
2023-06-30T20:06:26.502Z,17.64
2023-06-30T20:09:01.347Z,17.60
2023-06-30T20:11:33.474Z,17.53
2023-06-30T20:14:11.110Z,17.50
2023-06-30T20:16:46.299Z,17.46
2023-06-30T20:19:21.088Z,17.43
2023-06-30T20:21:56.524Z,17.38
2023-06-30T20:24:30.371Z,17.42
2023-06-30T20:27:05.369Z,17.44
2023-06-30T20:29:39.982Z,17.40
2023-06-30T20:32:27.482Z,17.37
2023-06-30T20:34:59.593Z,17.39
2023-06-30T20:37:32.373Z,17.32
2023-06-30T20:40:03.804Z,17.27
2023-06-30T20:42:41.926Z,17.16
2023-06-30T20:45:16.981Z,17.16
2023-06-30T20:47:51.917Z,17.01
2023-06-30T20:50:31.181Z,17.02
2023-06-30T20:53:06.831Z,17.01
2023-06-30T20:55:44.602Z,17.04
2023-06-30T20:58:18.795Z,17.03
2023-06-30T21:00:53.174Z,17.00
2023-06-30T21:03:30.138Z,16.98
2023-06-30T21:06:02.470Z,16.94
2023-06-30T21:08:48.678Z,16.89
2023-06-30T21:11:22.365Z,16.82
2023-06-30T21:13:52.081Z,16.78
2023-06-30T21:16:30.242Z,16.69
2023-06-30T21:18:59.548Z,16.64
2023-06-30T21:21:33.515Z,16.66
2023-06-30T21:24:04.559Z,16.66
2023-06-30T21:26:44.716Z,16.65
2023-06-30T21:29:19.778Z,16.67
2023-06-30T21:31:57.907Z,16.63
2023-06-30T21:34:32.549Z,16.54
2023-06-30T21:37:12.740Z,16.56
2023-06-30T21:39:55.635Z,16.44
2023-06-30T21:42:39.936Z,16.40
2023-06-30T21:45:15.620Z,16.40
2023-06-30T21:47:42.716Z,16.37
2023-06-30T21:50:22.871Z,16.49
2023-06-30T21:53:00.032Z,16.36
2023-06-30T21:55:36.335Z,16.32
2023-06-30T21:58:26.815Z,16.28
2023-06-30T22:01:20.195Z,16.25
2023-06-30T22:03:58.228Z,16.21
2023-06-30T22:06:35.750Z,16.22
2023-06-30T22:09:16.276Z,16.14
2023-06-30T22:12:08.527Z,16.05
2023-06-30T22:14:44.329Z,16.06
2023-06-30T22:17:19.374Z,16.03
2023-06-30T22:19:58.447Z,16.01
2023-06-30T22:22:32.921Z,15.92
2023-06-30T22:25:04.988Z,15.86
2023-06-30T22:27:43.325Z,15.88
2023-06-30T22:30:29.063Z,15.93
2023-06-30T22:33:00.374Z,15.94
2023-06-30T22:35:35.676Z,15.94
2023-06-30T22:38:17.370Z,15.94
2023-06-30T22:40:55.071Z,15.95
2023-06-30T22:43:35.060Z,15.89
2023-06-30T22:46:13.524Z,15.88
2023-06-30T22:48:59.503Z,15.88
2023-06-30T22:51:33.445Z,15.94
2023-06-30T22:54:10.512Z,15.93
2023-06-30T22:56:51.920Z,15.97
2023-06-30T22:59:22.885Z,15.98
2023-06-30T23:02:01.378Z,15.97
2023-06-30T23:04:39.011Z,16.04
2023-06-30T23:07:11.345Z,16.06
2023-06-30T23:09:50.257Z,16.03
2023-06-30T23:12:24.929Z,15.93
2023-06-30T23:14:56.900Z,15.84
2023-06-30T23:17:33.565Z,15.71
2023-06-30T23:20:04.524Z,15.61
2023-06-30T23:22:47.438Z,15.59
2023-06-30T23:25:27.130Z,15.53
2023-06-30T23:28:09.231Z,15.52
2023-06-30T23:30:49.068Z,15.46
2023-06-30T23:33:18.591Z,15.30
2023-06-30T23:35:53.117Z,15.37
2023-06-30T23:38:29.136Z,15.35
2023-06-30T23:41:17.107Z,15.22
2023-06-30T23:43:53.094Z,15.19
2023-06-30T23:46:30.282Z,15.19
2023-06-30T23:49:03.200Z,15.12
2023-06-30T23:51:45.203Z,15.13
2023-06-30T23:54:17.584Z,15.09
2023-06-30T23:56:49.967Z,15.02
2023-06-30T23:59:22.853Z,14.90
